Sound Reliance — WXAE — position and weather

sailwx.info

Track history (hours):
 
Tides and Currents Weather Stations Pressure Air Temp Water Temp Dewpoint Dewpoint Depression Visibility Wind Speed Wind Dir Waves Ship Positions

Sound Reliance

Owner: Intrepid Ship Management, Seattle, WA. More information available from US FCC via Universal Licensing System and Coast Guard Vessel Documentation Center.

Last reported at 2018-Feb-20 08:00 UTC. Time now 2018-Feb-20 08:01 UTC.
Position N 46°17' W 124°32'.

Type: Ship. MMSI: 338085216.

Date/timePositionNaut miles runAvg speedWind from/ knotsBaromVisibWave heightAir tempDewpointWater temp
2018-Feb-20 08:00N 46°17' W 124°32'4 8.8
2018-Feb-20 07:31N 46°20' W 124°38'510.7
2018-Feb-20 07:00N 46°25' W 124°40'510.6
2018-Feb-20 06:30N 46°30' W 124°43'510.5
2018-Feb-20 06:00N 46°35' W 124°46'510.2
2018-Feb-20 05:30N 46°40' W 124°48'510.2
2018-Feb-20 04:59N 46°45' W 124°51'107 9.9
2018-Feb-19 18:12N 48°31' W 124°56'212.1
2018-Feb-19 18:00N 48°31' W 124°52'612.3
2018-Feb-19 17:29N 48°31' W 124°43'612.7
2018-Feb-19 17:00N 48°28' W 124°34'712.9
2018-Feb-19 16:30N 48°26' W 124°25'612.6
2018-Feb-19 16:00N 48°24' W 124°16'54 1.2
2018-Feb-17 17:05N 48°22' W 122°55'113.0
2018-Feb-17 17:00N 48°22' W 122°53'612.3
2018-Feb-17 16:30N 48°26' W 122°46'611.2
2018-Feb-17 15:59N 48°32' W 122°45'511.0
2018-Feb-17 15:30N 48°37' W 122°45'4 0.3
2018-Feb-17 01:03N 48°41' W 122°42'111.9
2018-Feb-17 01:00N 48°40' W 122°42'611.3
2018-Feb-17 00:29N 48°37' W 122°34'1 0.1
2018-Feb-16 03:40N 48°37' W 122°33'0 0.1
2018-Feb-16 03:25N 48°37' W 122°33'0 0.0
2018-Feb-15 04:55N 48°37' W 122°33'0 0.0
2018-Feb-15 03:07N 48°37' W 122°33'0 0.0
2018-Feb-15 02:52N 48°37' W 122°33'0 0.0
2018-Feb-14 22:34N 48°37' W 122°33'0 0.0
2018-Feb-14 15:43N 48°37' W 122°33'0 0.0
2018-Feb-14 15:19N 48°37' W 122°33'0 0.1
2018-Feb-14 14:49N 48°37' W 122°33'3 7.3
2018-Feb-14 14:28N 48°37' W 122°37'13 0.6
2018-Feb-13 15:48N 48°50' W 122°43'4 2.0
2018-Feb-13 13:57N 48°46' W 122°45'511.7
2018-Feb-13 13:30N 48°41' W 122°42'611.6
2018-Feb-13 12:57N 48°38' W 122°34'1 0.4
2018-Feb-13 10:39N 48°37' W 122°32'0 0.0
2018-Feb-13 08:33N 48°37' W 122°32'0 0.1
2018-Feb-13 08:21N 48°37' W 122°32'0 0.1
2018-Feb-13 07:54N 48°37' W 122°33'0 0.2
2018-Feb-13 07:24N 48°37' W 122°33'0 0.1
2018-Feb-13 05:00N 48°37' W 122°33'0 0.0
2018-Feb-13 04:00N 48°37' W 122°33'0 0.0
2018-Feb-13 03:30N 48°37' W 122°33'0 0.0
2018-Feb-13 03:00N 48°37' W 122°33'0 0.0
2018-Feb-12 01:36N 48°37' W 122°32'0 0.1
2018-Feb-12 01:30N 48°37' W 122°32'0 0.0
2018-Feb-12 01:00N 48°37' W 122°32'0 0.0
2018-Feb-12 00:30N 48°37' W 122°32'0 0.0
2018-Feb-12 00:00N 48°37' W 122°32'0 0.0
2018-Feb-11 21:48N 48°37' W 122°32'0 0.1
2018-Feb-11 21:24N 48°37' W 122°32'0 0.1
2018-Feb-11 21:00N 48°37' W 122°32'0 0.1
2018-Feb-11 20:30N 48°37' W 122°32'0 0.0
2018-Feb-11 18:24N 48°37' W 122°32'0 0.0
2018-Feb-11 16:30N 48°37' W 122°32'0 0.1
2018-Feb-11 15:48N 48°37' W 122°32'0 0.0
2018-Feb-11 15:24N 48°37' W 122°32'0 0.0
2018-Feb-11 13:48N 48°37' W 122°32'0 0.0
2018-Feb-11 10:30N 48°37' W 122°32'0 0.1
2018-Feb-11 10:00N 48°37' W 122°32'0 0.0
2018-Feb-11 09:30N 48°37' W 122°32'0 0.0
2018-Feb-11 08:54N 48°37' W 122°32'0 0.0
2018-Feb-11 08:30N 48°37' W 122°32'0 0.2
2018-Feb-11 08:00N 48°37' W 122°32'0 0.0
2018-Feb-11 07:30N 48°37' W 122°32'0 0.1
2018-Feb-11 06:48N 48°37' W 122°32'0 0.1
2018-Feb-11 06:18N 48°37' W 122°33'0 0.2
2018-Feb-11 05:54N 48°37' W 122°33'0 0.0
2018-Feb-11 03:12N 48°37' W 122°32'0 0.1
2018-Feb-11 01:42N 48°37' W 122°32'0 0.0
2018-Feb-11 01:30N 48°37' W 122°32'0 0.1
2018-Feb-10 23:18N 48°37' W 122°33'0 0.0
2018-Feb-10 16:54N 48°37' W 122°32'0 0.0
2018-Feb-10 15:36N 48°37' W 122°32'0 0.2
2018-Feb-10 15:24N 48°37' W 122°32'0 0.0
2018-Feb-10 15:00N 48°37' W 122°32'0 0.1
2018-Feb-10 14:30N 48°37' W 122°32'0 0.0
2018-Feb-10 14:00N 48°37' W 122°32'  
Track history (hours):
 
Tides and Currents Weather Stations Pressure Air Temp Water Temp Dewpoint Dewpoint Depression Visibility Wind Speed Wind Dir Waves Ship Positions

Sound Reliance

Owner: Intrepid Ship Management, Seattle, WA. More information available from US FCC via Universal Licensing System and Coast Guard Vessel Documentation Center.

Last reported at 2018-Feb-20 08:00 UTC. Time now 2018-Feb-20 08:01 UTC.
Position N 46°17' W 124°32'.

Type: Ship. MMSI: 338085216.

Date/timePositionNaut miles runAvg speedWind from/ knotsBaromVisibWave heightAir tempDewpointWater temp
2018-Feb-20 08:00N 46°17' W 124°32'4 8.8
2018-Feb-20 07:31N 46°20' W 124°38'510.7
2018-Feb-20 07:00N 46°25' W 124°40'510.6
2018-Feb-20 06:30N 46°30' W 124°43'510.5
2018-Feb-20 06:00N 46°35' W 124°46'510.2
2018-Feb-20 05:30N 46°40' W 124°48'510.2
2018-Feb-20 04:59N 46°45' W 124°51'107 9.9
2018-Feb-19 18:12N 48°31' W 124°56'212.1
2018-Feb-19 18:00N 48°31' W 124°52'612.3
2018-Feb-19 17:29N 48°31' W 124°43'612.7
2018-Feb-19 17:00N 48°28' W 124°34'712.9
2018-Feb-19 16:30N 48°26' W 124°25'612.6
2018-Feb-19 16:00N 48°24' W 124°16'54 1.2
2018-Feb-17 17:05N 48°22' W 122°55'113.0
2018-Feb-17 17:00N 48°22' W 122°53'612.3
2018-Feb-17 16:30N 48°26' W 122°46'611.2
2018-Feb-17 15:59N 48°32' W 122°45'511.0
2018-Feb-17 15:30N 48°37' W 122°45'4 0.3
2018-Feb-17 01:03N 48°41' W 122°42'111.9
2018-Feb-17 01:00N 48°40' W 122°42'611.3
2018-Feb-17 00:29N 48°37' W 122°34'1 0.1
2018-Feb-16 03:40N 48°37' W 122°33'0 0.1
2018-Feb-16 03:25N 48°37' W 122°33'0 0.0
2018-Feb-15 04:55N 48°37' W 122°33'0 0.0
2018-Feb-15 03:07N 48°37' W 122°33'0 0.0
2018-Feb-15 02:52N 48°37' W 122°33'0 0.0
2018-Feb-14 22:34N 48°37' W 122°33'0 0.0
2018-Feb-14 15:43N 48°37' W 122°33'0 0.0
2018-Feb-14 15:19N 48°37' W 122°33'0 0.1
2018-Feb-14 14:49N 48°37' W 122°33'3 7.3
2018-Feb-14 14:28N 48°37' W 122°37'13 0.6
2018-Feb-13 15:48N 48°50' W 122°43'4 2.0
2018-Feb-13 13:57N 48°46' W 122°45'511.7
2018-Feb-13 13:30N 48°41' W 122°42'611.6
2018-Feb-13 12:57N 48°38' W 122°34'1 0.4
2018-Feb-13 10:39N 48°37' W 122°32'0 0.0
2018-Feb-13 08:33N 48°37' W 122°32'0 0.1
2018-Feb-13 08:21N 48°37' W 122°32'0 0.1
2018-Feb-13 07:54N 48°37' W 122°33'0 0.2
2018-Feb-13 07:24N 48°37' W 122°33'0 0.1
2018-Feb-13 05:00N 48°37' W 122°33'0 0.0
2018-Feb-13 04:00N 48°37' W 122°33'0 0.0
2018-Feb-13 03:30N 48°37' W 122°33'0 0.0
2018-Feb-13 03:00N 48°37' W 122°33'0 0.0
2018-Feb-12 01:36N 48°37' W 122°32'0 0.1
2018-Feb-12 01:30N 48°37' W 122°32'0 0.0
2018-Feb-12 01:00N 48°37' W 122°32'0 0.0
2018-Feb-12 00:30N 48°37' W 122°32'0 0.0
2018-Feb-12 00:00N 48°37' W 122°32'0 0.0
2018-Feb-11 21:48N 48°37' W 122°32'0 0.1
2018-Feb-11 21:24N 48°37' W 122°32'0 0.1
2018-Feb-11 21:00N 48°37' W 122°32'0 0.1
2018-Feb-11 20:30N 48°37' W 122°32'0 0.0
2018-Feb-11 18:24N 48°37' W 122°32'0 0.0
2018-Feb-11 16:30N 48°37' W 122°32'0 0.1
2018-Feb-11 15:48N 48°37' W 122°32'0 0.0
2018-Feb-11 15:24N 48°37' W 122°32'0 0.0
2018-Feb-11 13:48N 48°37' W 122°32'0 0.0
2018-Feb-11 10:30N 48°37' W 122°32'0 0.1
2018-Feb-11 10:00N 48°37' W 122°32'0 0.0
2018-Feb-11 09:30N 48°37' W 122°32'0 0.0
2018-Feb-11 08:54N 48°37' W 122°32'0 0.0
2018-Feb-11 08:30N 48°37' W 122°32'0 0.2
2018-Feb-11 08:00N 48°37' W 122°32'0 0.0
2018-Feb-11 07:30N 48°37' W 122°32'0 0.1
2018-Feb-11 06:48N 48°37' W 122°32'0 0.1
2018-Feb-11 06:18N 48°37' W 122°33'0 0.2
2018-Feb-11 05:54N 48°37' W 122°33'0 0.0
2018-Feb-11 03:12N 48°37' W 122°32'0 0.1
2018-Feb-11 01:42N 48°37' W 122°32'0 0.0
2018-Feb-11 01:30N 48°37' W 122°32'0 0.1
2018-Feb-10 23:18N 48°37' W 122°33'0 0.0
2018-Feb-10 16:54N 48°37' W 122°32'0 0.0
2018-Feb-10 15:36N 48°37' W 122°32'0 0.2
2018-Feb-10 15:24N 48°37' W 122°32'0 0.0
2018-Feb-10 15:00N 48°37' W 122°32'0 0.1
2018-Feb-10 14:30N 48°37' W 122°32'0 0.0
2018-Feb-10 14:00N 48°37' W 122°32'  

Dump ship's entire track history